createdAt,value
2017-03-23T13:56:56.966Z,18.58
2017-03-23T13:57:55.164Z,18.20
2017-03-23T13:58:52.854Z,19.88
2017-03-23T13:59:52.310Z,18.37
2017-03-23T14:00:50.164Z,19.10
2017-03-23T14:01:47.791Z,18.48
2017-03-23T14:02:45.460Z,17.15
2017-03-23T14:03:43.298Z,17.42
2017-03-23T14:04:40.930Z,17.25
2017-03-23T14:05:38.759Z,16.63
2017-03-23T14:06:37.404Z,17.88
2017-03-23T14:07:35.662Z,17.10
2017-03-23T14:08:33.374Z,16.77
2017-03-23T14:09:31.284Z,16.92
2017-03-23T14:10:29.443Z,16.22
2017-03-23T14:11:27.152Z,15.88
2017-03-23T14:12:25.053Z,16.85
2017-03-23T14:13:23.433Z,16.40
2017-03-23T14:14:21.279Z,16.63
2017-03-23T14:15:19.616Z,16.68
2017-03-23T14:16:17.314Z,16.57
2017-03-23T14:17:15.019Z,16.85
2017-03-23T14:18:12.657Z,15.50
2017-03-23T14:19:11.086Z,15.67
2017-03-23T14:20:09.210Z,13.80
2017-03-23T14:21:07.869Z,14.80
2017-03-23T14:22:05.719Z,15.40
2017-03-23T14:23:03.426Z,13.72
2017-03-23T14:24:01.269Z,14.02
2017-03-23T14:24:59.077Z,13.12
2017-03-23T14:25:57.652Z,14.77
2017-03-23T14:26:55.402Z,14.00
2017-03-23T14:27:53.064Z,14.05
2017-03-23T14:28:50.736Z,14.80
2017-03-23T14:29:49.194Z,14.52
2017-03-23T14:30:47.591Z,14.43
2017-03-23T14:31:46.287Z,14.12
2017-03-23T14:32:44.783Z,13.82
2017-03-23T14:36:44.369Z,13.90
2017-03-23T14:47:30.185Z,13.13
2017-03-23T14:48:27.890Z,10.98
2017-03-23T14:49:25.521Z,13.15
2017-03-23T14:50:23.683Z,13.15
2017-03-23T14:51:21.549Z,12.42
2017-03-23T14:52:19.329Z,12.18
2017-03-23T14:53:18.003Z,12.65
2017-03-23T14:54:16.714Z,12.95
2017-03-23T14:55:14.628Z,13.85
2017-03-23T14:56:12.346Z,13.20
2017-03-23T14:57:10.074Z,13.25
2017-03-23T14:58:07.711Z,12.63
2017-03-23T14:59:05.362Z,13.27
2017-03-23T15:00:03.347Z,13.13
2017-03-23T15:01:01.003Z,12.85
2017-03-23T15:01:58.692Z,13.47
2017-03-23T15:02:56.398Z,13.63
2017-03-23T15:03:54.005Z,12.97
2017-03-23T15:04:51.623Z,14.67
2017-03-23T15:05:50.169Z,13.72
2017-03-23T15:06:47.857Z,12.80
2017-03-23T15:07:45.466Z,12.57
2017-03-23T15:08:43.082Z,12.83
2017-03-23T15:09:41.723Z,13.82
2017-03-23T15:10:39.426Z,13.57
2017-03-23T15:11:37.177Z,11.95
2017-03-23T15:12:35.468Z,13.42
2017-03-23T15:13:33.142Z,12.80
2017-03-23T15:14:30.834Z,13.10
2017-03-23T15:15:29.039Z,11.73
2017-03-23T15:16:26.838Z,12.25
2017-03-23T15:17:24.504Z,12.75
2017-03-23T15:18:22.165Z,13.00
2017-03-23T15:19:19.834Z,12.52
2017-03-23T15:20:17.555Z,12.15
2017-03-23T15:21:15.589Z,13.97
2017-03-23T15:22:13.266Z,13.10
2017-03-23T15:23:10.882Z,13.07
2017-03-23T15:24:08.539Z,13.63
2017-03-23T15:25:06.253Z,11.77
2017-03-23T15:26:03.903Z,13.82
2017-03-23T15:27:01.887Z,13.20
2017-03-23T15:27:59.592Z,13.77
2017-03-23T15:28:57.346Z,14.02
2017-03-23T15:29:55.075Z,12.33
2017-03-23T15:30:52.824Z,13.63
2017-03-23T15:31:52.043Z,14.32
2017-03-23T15:32:49.730Z,13.50
2017-03-23T15:33:47.399Z,15.07
2017-03-23T15:34:45.022Z,15.05
2017-03-23T15:35:42.700Z,13.63
2017-03-23T15:36:40.419Z,13.55
2017-03-23T15:37:38.572Z,12.43
2017-03-23T15:38:36.310Z,14.33
2017-03-23T15:39:35.039Z,13.02
2017-03-23T15:40:33.212Z,13.27
2017-03-23T15:41:30.939Z,12.82
2017-03-23T15:42:30.003Z,15.03
2017-03-23T15:43:27.714Z,13.88
2017-03-23T15:44:25.351Z,13.75
2017-03-23T15:45:23.872Z,13.73
2017-03-23T15:46:21.629Z,13.87
2017-03-23T15:47:20.950Z,13.62
2017-03-23T15:48:18.667Z,13.90
2017-03-23T15:49:16.456Z,13.48
2017-03-23T15:50:14.524Z,13.87
2017-03-23T15:51:12.162Z,13.27
2017-03-23T15:52:10.004Z,13.63
2017-03-23T15:53:07.835Z,13.37
2017-03-23T15:54:06.561Z,13.10
2017-03-23T15:55:04.644Z,13.77
2017-03-23T15:56:02.306Z,13.63
2017-03-23T15:56:59.941Z,13.55
2017-03-23T15:57:57.630Z,13.58
2017-03-23T15:58:55.269Z,12.78
2017-03-23T15:59:52.965Z,13.52
2017-03-23T16:00:50.962Z,14.12
2017-03-23T16:01:49.735Z,17.15
2017-03-23T16:02:47.402Z,14.55
2017-03-23T16:03:45.243Z,13.75
2017-03-23T16:04:42.914Z,14.48
2017-03-23T16:05:40.689Z,15.12
2017-03-23T16:06:38.916Z,14.67
2017-03-23T16:07:36.552Z,14.52
2017-03-23T16:08:34.191Z,13.30
2017-03-23T16:09:32.543Z,14.08
2017-03-23T16:10:30.274Z,13.55
2017-03-23T16:11:27.866Z,14.23
2017-03-23T16:12:25.682Z,15.58
2017-03-23T16:13:23.349Z,15.53
2017-03-23T16:14:21.819Z,14.87
2017-03-23T16:15:20.134Z,16.03
2017-03-23T16:16:17.930Z,15.02
2017-03-23T16:17:15.812Z,15.77
2017-03-23T16:18:13.571Z,15.97
2017-03-23T16:19:12.222Z,15.98
2017-03-23T16:20:10.023Z,16.22
2017-03-23T16:21:07.893Z,15.85
2017-03-23T16:22:06.529Z,17.40
2017-03-23T16:23:04.345Z,18.08
2017-03-23T16:24:02.624Z,16.67
2017-03-23T16:25:00.559Z,17.95
2017-03-23T16:25:58.629Z,18.32
2017-03-23T16:26:56.319Z,18.37
2017-03-23T16:27:54.499Z,18.57
2017-03-23T16:28:52.147Z,18.50
2017-03-23T16:29:50.333Z,18.38
2017-03-23T16:30:48.086Z,18.98
2017-03-23T16:31:45.899Z,20.18
2017-03-23T16:32:43.651Z,20.07
2017-03-23T16:33:41.476Z,20.50
2017-03-23T16:34:39.119Z,20.80
2017-03-23T16:35:37.407Z,21.68
2017-03-23T16:36:35.212Z,21.52
2017-03-23T16:37:33.026Z,22.22
2017-03-23T16:38:30.679Z,21.62
2017-03-23T16:39:28.470Z,21.60
2017-03-23T16:40:26.354Z,21.25
2017-03-23T16:41:24.050Z,20.33
2017-03-23T16:42:21.794Z,21.65
2017-03-23T16:43:19.702Z,21.48
2017-03-23T16:44:17.429Z,21.23
2017-03-23T16:45:16.236Z,22.73
2017-03-23T16:46:14.011Z,22.63
2017-03-23T16:47:11.691Z,22.20
2017-03-23T16:48:09.499Z,23.55
2017-03-23T16:49:07.238Z,22.72
2017-03-23T16:50:05.635Z,22.53
2017-03-23T16:51:04.806Z,21.80
2017-03-23T16:52:02.499Z,23.77
2017-03-23T16:53:00.180Z,22.88
2017-03-23T16:53:58.744Z,22.37
2017-03-23T16:54:57.460Z,24.62
2017-03-23T16:55:55.272Z,25.43
2017-03-23T16:56:53.536Z,24.92
2017-03-23T16:57:51.380Z,24.53
2017-03-23T16:58:50.048Z,23.98
2017-03-23T16:59:47.851Z,24.80
2017-03-23T17:00:46.049Z,27.42
2017-03-23T17:01:43.977Z,25.90
2017-03-23T17:02:41.792Z,26.47
2017-03-23T17:03:39.557Z,27.37
2017-03-23T17:04:37.312Z,26.77
2017-03-23T17:05:35.579Z,27.67
2017-03-23T17:06:35.975Z,27.47
2017-03-23T17:07:33.592Z,26.28
2017-03-23T17:08:32.134Z,26.97
2017-03-23T17:09:29.968Z,26.22
2017-03-23T17:10:27.727Z,26.43
2017-03-23T17:11:25.900Z,26.73
2017-03-23T17:12:24.655Z,25.62
2017-03-23T17:13:22.771Z,25.40
2017-03-23T17:14:20.458Z,28.80
2017-03-23T17:15:18.330Z,27.28
2017-03-23T17:16:16.177Z,28.10
2017-03-23T17:17:14.810Z,24.68
2017-03-23T17:18:12.452Z,24.60
2017-03-23T17:19:10.271Z,25.03
2017-03-23T17:20:08.030Z,23.12
2017-03-23T17:21:05.699Z,25.43
2017-03-23T17:22:03.717Z,24.67
2017-03-23T17:23:02.324Z,24.22
2017-03-23T17:24:01.747Z,21.03
2017-03-23T17:24:59.438Z,23.02
2017-03-23T17:25:57.243Z,23.50
2017-03-23T17:26:55.174Z,21.38
2017-03-23T17:27:53.094Z,22.02
2017-03-23T17:28:50.701Z,21.65
2017-03-23T17:29:48.704Z,22.12
2017-03-23T17:30:46.579Z,21.60
2017-03-23T17:31:44.210Z,18.87
2017-03-23T17:32:41.876Z,19.23
2017-03-23T17:33:39.629Z,18.55
2017-03-23T17:34:37.269Z,19.90
2017-03-23T17:35:35.110Z,19.85
2017-03-23T17:36:32.749Z,22.05
2017-03-23T17:37:30.419Z,23.08
2017-03-23T17:38:28.199Z,21.60
2017-03-23T17:39:27.463Z,23.63
2017-03-23T17:40:25.642Z,22.50
2017-03-23T17:41:23.375Z,20.72
2017-03-23T17:42:22.612Z,21.40
2017-03-23T17:43:20.285Z,21.28
2017-03-23T17:44:18.028Z,21.52
2017-03-23T17:45:15.867Z,23.03
2017-03-23T17:46:13.815Z,21.20
2017-03-23T17:47:11.526Z,22.12
2017-03-23T17:48:09.192Z,21.45
2017-03-23T17:49:07.030Z,20.53
2017-03-23T17:50:05.313Z,22.07
2017-03-23T17:51:03.231Z,20.83
2017-03-23T17:52:01.015Z,21.58
2017-03-23T17:52:59.371Z,21.25
2017-03-23T17:53:57.480Z,23.23
2017-03-23T17:54:55.681Z,22.68
2017-03-23T17:55:53.929Z,21.30
2017-03-23T17:56:51.623Z,21.15
2017-03-23T17:57:49.293Z,20.57
2017-03-23T17:58:46.952Z,21.35
2017-03-23T17:59:44.714Z,24.55
2017-03-23T18:00:43.536Z,21.20
2017-03-23T18:01:41.191Z,21.60
2017-03-23T18:02:38.838Z,21.13
2017-03-23T18:03:36.963Z,19.80
2017-03-23T18:04:34.641Z,20.87
2017-03-23T18:05:32.751Z,23.25
2017-03-23T18:06:31.073Z,22.82
2017-03-23T18:07:28.773Z,20.05
2017-03-23T18:08:26.463Z,19.80
2017-03-23T18:09:24.084Z,19.17
2017-03-23T18:10:21.770Z,22.27
2017-03-23T18:11:19.793Z,19.80
2017-03-23T18:12:17.496Z,20.38
2017-03-23T18:13:15.270Z,16.65
2017-03-23T18:14:13.535Z,18.17
2017-03-23T18:15:11.337Z,21.50
2017-03-23T18:16:09.001Z,22.93
2017-03-23T18:17:06.713Z,17.95
2017-03-23T18:18:04.337Z,18.22
2017-03-23T18:19:02.922Z,18.37
2017-03-23T18:20:00.588Z,18.87
2017-03-23T18:20:58.366Z,18.53
2017-03-23T18:21:56.036Z,20.85
2017-03-23T18:22:53.721Z,21.27
2017-03-23T18:23:51.954Z,21.78
2017-03-23T18:24:49.611Z,18.90
2017-03-23T18:25:50.435Z,21.13
2017-03-23T18:26:48.076Z,21.12
2017-03-23T18:27:46.441Z,21.47
2017-03-23T18:28:44.825Z,20.78
2017-03-23T18:29:43.491Z,25.23
2017-03-23T18:30:41.207Z,23.85
2017-03-23T18:31:39.479Z,21.75
2017-03-23T18:32:37.217Z,21.88
2017-03-23T18:33:34.919Z,24.27
2017-03-23T18:34:33.745Z,26.57
2017-03-23T18:35:32.311Z,23.82
2017-03-23T18:36:30.815Z,23.90
2017-03-23T18:37:28.519Z,22.65
2017-03-23T18:38:26.207Z,24.65
2017-03-23T18:39:24.255Z,24.85
2017-03-23T18:40:22.308Z,24.77
2017-03-23T18:41:20.004Z,23.57
2017-03-23T18:42:18.523Z,25.28
2017-03-23T18:43:16.250Z,24.70
2017-03-23T18:44:13.986Z,24.27
2017-03-23T18:45:12.134Z,23.88
2017-03-23T18:46:09.831Z,25.80
2017-03-23T18:47:08.510Z,26.10
2017-03-23T18:48:07.225Z,24.25
2017-03-23T18:49:05.691Z,24.70
2017-03-23T18:50:04.615Z,25.78
2017-03-23T18:51:02.319Z,25.10
2017-03-23T18:52:00.886Z,24.42
2017-03-23T18:52:59.123Z,25.77
2017-03-23T18:53:56.791Z,25.47
2017-03-23T18:54:54.525Z,26.55
2017-03-23T18:55:53.258Z,26.85
2017-03-23T18:56:51.060Z,26.65
2017-03-23T18:57:48.867Z,27.15
2017-03-23T18:58:47.437Z,27.60
2017-03-23T18:59:45.163Z,25.65
2017-03-23T19:00:43.156Z,26.25
2017-03-23T19:01:40.897Z,27.60
2017-03-23T19:02:39.243Z,26.85
2017-03-23T19:03:38.593Z,27.10
2017-03-23T19:04:36.303Z,24.02
2017-03-23T19:05:34.093Z,24.90
2017-03-23T19:06:31.800Z,24.63
2017-03-23T19:07:30.182Z,24.05
2017-03-23T19:08:28.032Z,23.60
2017-03-23T19:09:26.751Z,23.15
2017-03-23T19:10:25.472Z,23.30
2017-03-23T19:11:24.032Z,22.08
2017-03-23T19:12:21.762Z,23.75
2017-03-23T19:13:19.541Z,23.82
2017-03-23T19:14:18.060Z,22.53
2017-03-23T19:15:16.221Z,22.05
2017-03-23T19:16:14.148Z,22.47
2017-03-23T19:17:14.109Z,24.48
2017-03-23T19:18:12.070Z,25.12
2017-03-23T19:19:09.760Z,23.32
2017-03-23T19:20:07.557Z,25.13
2017-03-23T19:21:06.214Z,23.13
2017-03-23T19:22:04.582Z,22.75
2017-03-23T19:23:02.987Z,22.83
2017-03-23T19:24:02.708Z,23.68
2017-03-23T19:25:00.430Z,24.83
2017-03-23T19:25:58.984Z,23.80
2017-03-23T19:26:57.052Z,23.27
2017-03-23T19:27:54.749Z,23.53
2017-03-23T19:28:52.580Z,24.05
2017-03-23T19:29:50.248Z,24.85
2017-03-23T19:30:48.410Z,25.02
2017-03-23T19:31:46.499Z,23.47
2017-03-23T19:32:44.447Z,22.18
2017-03-23T19:33:42.168Z,24.25
2017-03-23T19:34:40.547Z,24.45
2017-03-23T19:35:38.682Z,23.83
2017-03-23T19:36:36.383Z,23.57
2017-03-23T19:37:34.429Z,22.55
2017-03-23T19:38:32.178Z,23.08
2017-03-23T19:39:29.901Z,24.23
2017-03-23T19:40:27.935Z,22.55
2017-03-23T19:41:26.395Z,22.05
2017-03-23T19:42:24.052Z,22.80
2017-03-23T19:43:21.820Z,21.35
2017-03-23T19:44:19.543Z,24.08
2017-03-23T19:45:17.587Z,21.95
2017-03-23T19:46:15.994Z,21.93
2017-03-23T19:47:13.725Z,22.68
2017-03-23T19:48:12.041Z,23.42
2017-03-23T19:49:11.173Z,22.73
2017-03-23T19:50:10.432Z,22.73
2017-03-23T19:51:08.212Z,22.58
2017-03-23T19:52:06.871Z,22.98
2017-03-23T19:53:05.706Z,23.47
2017-03-23T19:54:04.040Z,22.50
2017-03-23T19:55:02.650Z,23.08
2017-03-23T19:56:00.540Z,23.33
2017-03-23T19:56:59.423Z,21.93
2017-03-23T19:57:57.364Z,23.20
2017-03-23T19:58:55.449Z,21.08
2017-03-23T19:59:54.251Z,22.30
2017-03-23T20:00:53.005Z,21.48
2017-03-23T20:01:50.865Z,22.77
2017-03-23T20:02:49.572Z,23.00
2017-03-23T20:03:47.623Z,24.18
2017-03-23T20:04:46.332Z,22.05
2017-03-23T20:05:44.422Z,23.30
2017-03-23T20:06:42.157Z,21.78
2017-03-23T20:07:39.930Z,23.42
2017-03-23T20:08:38.831Z,22.70
2017-03-23T20:09:37.815Z,24.52
2017-03-23T20:10:36.176Z,24.18
2017-03-23T20:11:34.966Z,24.53
2017-03-23T20:12:32.844Z,23.23
2017-03-23T20:13:30.871Z,24.98
2017-03-23T20:14:28.647Z,24.97
2017-03-23T20:16:31.264Z,23.65
2017-03-23T20:17:29.946Z,25.47
2017-03-23T20:18:28.607Z,25.22
2017-03-23T20:19:26.332Z,25.27
2017-03-23T20:20:24.028Z,24.18
2017-03-23T20:21:23.026Z,23.63
2017-03-23T20:22:20.896Z,24.80
2017-03-23T20:23:18.919Z,26.42
2017-03-23T20:24:17.483Z,24.37
2017-03-23T20:25:15.547Z,25.15
2017-03-23T20:26:13.440Z,25.78
2017-03-23T20:27:11.363Z,25.97
2017-03-23T20:28:09.903Z,23.88
2017-03-23T20:29:07.705Z,24.63
2017-03-23T20:30:07.710Z,24.07
2017-03-23T20:31:05.767Z,25.30
2017-03-23T20:32:04.548Z,26.32
2017-03-23T20:33:03.825Z,26.02
2017-03-23T20:34:01.539Z,25.40
2017-03-23T20:34:59.485Z,26.82
2017-03-23T20:35:57.471Z,25.72
2017-03-23T20:36:55.840Z,26.37
2017-03-23T20:37:53.605Z,27.00
2017-03-23T20:38:51.353Z,27.78
2017-03-23T20:39:49.083Z,27.12
2017-03-23T20:40:48.066Z,25.42
2017-03-23T20:41:45.856Z,28.55
2017-03-23T20:42:43.529Z,26.72
2017-03-23T20:43:41.871Z,27.83
2017-03-23T20:44:39.707Z,26.47
2017-03-23T20:45:37.995Z,27.68
2017-03-23T20:46:36.433Z,27.45
2017-03-23T20:47:34.121Z,25.03
2017-03-23T20:48:31.835Z,26.02
2017-03-23T20:49:29.762Z,26.37
2017-03-23T20:50:28.539Z,27.12
2017-03-23T20:51:26.836Z,24.88
2017-03-23T20:52:24.577Z,26.93
2017-03-23T20:53:22.469Z,25.25
2017-03-23T20:54:20.818Z,26.50
2017-03-23T20:55:19.595Z,25.25
2017-03-23T20:56:19.053Z,26.43
2017-03-23T20:57:17.107Z,26.70
2017-03-23T20:58:14.837Z,26.15
2017-03-23T20:59:12.652Z,24.60
2017-03-23T21:00:11.385Z,25.05
2017-03-23T21:01:10.508Z,26.02
2017-03-23T21:02:08.859Z,27.15
2017-03-23T21:03:07.587Z,26.65
2017-03-23T21:04:05.897Z,28.48
2017-03-23T21:05:03.781Z,27.65
2017-03-23T21:06:02.021Z,27.32
2017-03-23T21:07:00.001Z,27.58
2017-03-23T21:07:58.392Z,28.00
2017-03-23T21:08:56.227Z,27.78
2017-03-23T21:09:55.388Z,27.42
2017-03-23T21:10:53.139Z,27.23
2017-03-23T21:11:52.276Z,27.70
2017-03-23T21:12:50.231Z,27.37
2017-03-23T21:13:47.888Z,27.78
2017-03-23T21:14:45.738Z,27.15
2017-03-23T21:15:43.662Z,28.00
2017-03-23T21:16:41.338Z,29.42
2017-03-23T21:17:39.147Z,31.33
2017-03-23T21:18:36.823Z,31.02
2017-03-23T21:19:34.481Z,31.32
2017-03-23T21:20:32.386Z,31.60
2017-03-23T21:21:30.237Z,27.15
2017-03-23T21:22:27.991Z,30.65
2017-03-23T21:23:25.885Z,29.75
2017-03-23T21:24:23.548Z,29.93
2017-03-23T21:25:21.814Z,29.10
2017-03-23T21:26:19.691Z,31.05
2017-03-23T21:27:18.853Z,28.80
2017-03-23T21:28:16.923Z,28.05
2017-03-23T21:29:14.720Z,30.32
2017-03-23T21:30:13.332Z,28.87
2017-03-23T21:31:11.111Z,30.35
2017-03-23T21:32:09.077Z,29.30
2017-03-23T21:33:06.803Z,31.10
2017-03-23T21:34:04.679Z,31.53
2017-03-23T21:35:03.607Z,29.77
2017-03-23T21:36:01.264Z,28.68
2017-03-23T21:36:59.202Z,31.23
2017-03-23T21:37:56.949Z,31.38
2017-03-23T21:38:55.483Z,31.07
2017-03-23T21:39:53.254Z,29.47
2017-03-23T21:40:51.704Z,30.95
2017-03-23T21:41:49.555Z,29.57
2017-03-23T21:42:47.508Z,29.97
2017-03-23T21:43:45.134Z,32.15
2017-03-23T21:44:42.779Z,29.40
2017-03-23T21:45:40.655Z,29.77
2017-03-23T21:46:38.614Z,27.98
2017-03-23T21:47:36.316Z,28.23
2017-03-23T21:48:33.948Z,29.45
2017-03-23T21:49:32.010Z,29.15
2017-03-23T21:50:31.459Z,27.90
2017-03-23T21:51:30.003Z,29.03
2017-03-23T21:52:28.731Z,29.25
2017-03-23T21:53:26.384Z,30.13
2017-03-23T21:54:24.180Z,28.07
2017-03-23T21:55:23.422Z,28.63
2017-03-23T21:56:21.113Z,26.32
2017-03-23T21:57:18.942Z,27.35
2017-03-23T21:58:16.830Z,27.88
2017-03-23T21:59:14.513Z,28.00
2017-03-23T22:00:12.611Z,27.50
2017-03-23T22:01:10.335Z,27.85
2017-03-23T22:02:07.964Z,27.68
2017-03-23T22:03:06.351Z,29.17
2017-03-23T22:04:04.912Z,27.53
2017-03-23T22:05:03.236Z,26.90
2017-03-23T22:06:00.883Z,27.18
2017-03-23T22:06:58.711Z,28.32
2017-03-23T22:07:56.363Z,27.25
2017-03-23T22:08:54.252Z,27.78
2017-03-23T22:09:51.881Z,28.77
2017-03-23T22:10:51.863Z,28.50
2017-03-23T22:11:49.599Z,27.40
2017-03-23T22:12:47.514Z,27.85
2017-03-23T22:13:46.559Z,27.77
2017-03-23T22:14:44.309Z,27.50
2017-03-23T22:15:42.022Z,30.27
2017-03-23T22:16:40.170Z,30.88
2017-03-23T22:17:38.675Z,28.80
2017-03-23T22:18:36.484Z,28.95
2017-03-23T22:19:34.145Z,29.43
2017-03-23T22:20:31.899Z,27.40
2017-03-23T22:21:29.547Z,30.67
2017-03-23T22:22:27.384Z,27.75
2017-03-23T22:23:26.562Z,27.83
2017-03-23T22:24:24.181Z,29.67
2017-03-23T22:25:22.625Z,29.90
2017-03-23T22:26:20.375Z,28.88
2017-03-23T22:27:17.996Z,29.08
2017-03-23T22:28:15.803Z,29.58
2017-03-23T22:29:13.667Z,27.95
2017-03-23T22:30:15.488Z,29.50
2017-03-23T22:31:13.284Z,30.78
2017-03-23T22:32:11.235Z,29.23
2017-03-23T22:33:09.151Z,29.92
2017-03-23T22:34:06.856Z,31.00
2017-03-23T22:35:04.633Z,30.00
2017-03-23T22:36:02.609Z,31.02
2017-03-23T22:37:00.334Z,30.27
2017-03-23T22:37:57.992Z,29.92
2017-03-23T22:38:55.675Z,29.22
2017-03-23T22:39:53.331Z,29.52
2017-03-23T22:40:51.592Z,29.78
2017-03-23T22:41:49.214Z,30.05
2017-03-23T22:42:47.890Z,28.20
2017-03-23T22:43:46.492Z,31.63
2017-03-23T22:44:44.143Z,30.55
2017-03-23T22:45:42.413Z,31.47
2017-03-23T22:46:40.138Z,29.28
2017-03-23T22:47:37.784Z,30.12
2017-03-23T22:48:35.637Z,30.33
2017-03-23T22:49:33.425Z,29.88
2017-03-23T22:50:31.587Z,30.03
2017-03-23T22:51:29.910Z,30.48
2017-03-23T22:52:27.762Z,30.37
2017-03-23T22:53:25.595Z,28.10
2017-03-23T22:54:23.431Z,29.12
2017-03-23T22:55:22.411Z,31.03
2017-03-23T22:56:20.358Z,30.40
2017-03-23T22:57:18.104Z,29.97
2017-03-23T22:58:15.975Z,30.18
2017-03-23T22:59:13.664Z,30.02
2017-03-23T23:00:12.119Z,28.08
2017-03-23T23:01:09.939Z,31.60
2017-03-23T23:02:08.771Z,29.92
2017-03-23T23:03:06.718Z,30.12
2017-03-23T23:04:04.375Z,30.02
2017-03-23T23:05:02.267Z,29.52
2017-03-23T23:06:00.136Z,31.33
2017-03-23T23:06:57.751Z,30.65
2017-03-23T23:07:55.407Z,29.90
2017-03-23T23:08:53.163Z,31.55
2017-03-23T23:09:50.817Z,29.77
2017-03-23T23:10:48.932Z,29.53
2017-03-23T23:11:47.425Z,31.27
2017-03-23T23:12:45.271Z,29.55
2017-03-23T23:13:43.025Z,30.83
2017-03-23T23:14:40.720Z,29.07
2017-03-23T23:15:38.522Z,28.72
2017-03-23T23:16:37.507Z,30.17
2017-03-23T23:17:35.165Z,30.17
2017-03-23T23:18:32.959Z,29.55
2017-03-23T23:19:30.687Z,29.10
2017-03-23T23:20:28.847Z,28.77
2017-03-23T23:21:26.624Z,28.67
2017-03-23T23:22:24.674Z,27.80
2017-03-23T23:23:22.729Z,29.67
2017-03-23T23:24:20.607Z,28.08
2017-03-23T23:25:18.572Z,27.43
2017-03-23T23:26:16.310Z,30.83
2017-03-23T23:27:14.491Z,29.55
2017-03-23T23:28:12.232Z,28.07
2017-03-23T23:29:10.011Z,28.10
2017-03-23T23:30:08.793Z,29.88
2017-03-23T23:31:06.737Z,27.27
2017-03-23T23:32:04.762Z,28.87
2017-03-23T23:33:02.446Z,29.80
2017-03-23T23:34:00.099Z,29.82
2017-03-23T23:34:57.883Z,30.00
2017-03-23T23:35:55.646Z,28.58
2017-03-23T23:36:53.367Z,29.33
2017-03-23T23:37:51.229Z,27.82
2017-03-23T23:38:48.896Z,28.42
2017-03-23T23:39:47.262Z,28.90
2017-03-23T23:40:45.023Z,28.98
2017-03-23T23:41:42.821Z,28.57
2017-03-23T23:42:41.420Z,27.32
2017-03-23T23:43:39.518Z,26.85
2017-03-23T23:44:37.320Z,27.77
2017-03-23T23:45:35.299Z,28.25
2017-03-23T23:46:33.131Z,28.75
2017-03-23T23:47:30.772Z,28.07
2017-03-23T23:48:28.459Z,29.32
2017-03-23T23:49:26.219Z,28.43
2017-03-23T23:50:24.068Z,27.92
2017-03-23T23:51:22.539Z,27.25
2017-03-23T23:52:20.335Z,28.95
2017-03-23T23:53:18.204Z,28.53
2017-03-23T23:54:15.844Z,27.48
2017-03-23T23:55:13.792Z,29.02
2017-03-23T23:56:11.423Z,27.33
2017-03-23T23:57:09.199Z,27.73
2017-03-23T23:58:07.005Z,27.43
2017-03-23T23:59:04.946Z,29.25
